PWSweather.com
Personal Weather Stations
Station Observations
TMASSANO
Herbertsville, Brick, NJ 08724

HerbertsvilleBrick, NJ 08724

Lat: 40.098, Lon: -74.096

Elevation: 16

Station Type: WS 2800

High Low Average
Temperature 59.0°F15.0°C 50.0°F10.0°C 55.5°F13.1°C
Dew Point 49.0°F9.4°C 41.4°F5.2°C 45.4°F7.4°C
Winds 4.7 mph 7.6 kmh Calm Calm 2.0 mph W3.2 kmh W
Wind Gusts 6.7 mph10.8 kmh -- 3.0 mph4.8 kmh
Humidity 85% 59% 69%
Pressure 30.10 in1019.3 mb 29.95 in1014.2 mb -
Precipitation 0.00 in0.0 mm - -
Hour Temp Dew Point Humidity Winds Wind Gusts Pressure Precip Precip Rate Daily Precip Total
11:25 AM 50.0°F10.0°C 45.6°F7.6°C 85% Calm Calm -- 29.99 in1015.6 mb 0.00 in0.0 mm 0.00 in/hr0.0 mm/hr 0.00 in0.0 mm
11:27 AM 50.0°F10.0°C 45.6°F7.6°C 85% Calm Calm -- 29.99 in1015.6 mb 0.00 in0.0 mm 0.00 in/hr0.0 mm/hr 0.00 in0.0 mm
11:30 AM 50.2°F10.1°C 45.8°F7.7°C 85% Calm Calm -- 29.99 in1015.6 mb 0.00 in0.0 mm 0.00 in/hr0.0 mm/hr 0.00 in0.0 mm
11:36 AM 50.2°F10.1°C 45.8°F7.7°C 85% Calm Calm -- 29.98 in1015.2 mb 0.00 in0.0 mm 0.00 in/hr0.0 mm/hr 0.00 in0.0 mm
11:41 AM 50.8°F10.4°C 46.4°F8.0°C 85% Calm Calm -- 29.98 in1015.2 mb 0.00 in0.0 mm 0.00 in/hr0.0 mm/hr 0.00 in0.0 mm
11:46 AM 51.1°F10.6°C 46.5°F8.1°C 84% Calm Calm -- 29.98 in1015.2 mb 0.00 in0.0 mm 0.00 in/hr0.0 mm/hr 0.00 in0.0 mm
11:51 AM 51.3°F10.7°C 46.6°F8.1°C 84% 0.4 mph SW0.6 kmh SW 0.4 mph0.6 kmh 29.98 in1015.2 mb 0.00 in0.0 mm 0.00 in/hr0.0 mm/hr 0.00 in0.0 mm
11:56 AM 52.0°F11.1°C 47.0°F8.3°C 83% 0.6 mph SW1.0 kmh SW 1.1 mph1.8 kmh 29.97 in1014.9 mb 0.00 in0.0 mm 0.00 in/hr0.0 mm/hr 0.00 in0.0 mm
12:01 PM 52.6°F11.4°C 47.5°F8.6°C 83% 1.8 mph SW2.9 kmh SW 2.2 mph3.5 kmh 29.97 in1014.9 mb 0.00 in0.0 mm 0.00 in/hr0.0 mm/hr 0.00 in0.0 mm
12:06 PM 52.9°F11.6°C 47.6°F8.7°C 82% 2.5 mph W4.0 kmh W 2.5 mph4.0 kmh 29.97 in1014.9 mb 0.00 in0.0 mm 0.00 in/hr0.0 mm/hr 0.00 in0.0 mm
12:11 PM 53.6°F12.0°C 47.7°F8.7°C 80% 2.5 mph NW4.0 kmh NW 2.5 mph4.0 kmh 29.97 in1014.9 mb 0.00 in0.0 mm 0.00 in/hr0.0 mm/hr 0.00 in0.0 mm
12:16 PM 54.2°F12.3°C 48.2°F9.0°C 80% 2.2 mph WSW3.5 kmh WSW 2.5 mph4.0 kmh 29.97 in1014.9 mb 0.00 in0.0 mm 0.00 in/hr0.0 mm/hr 0.00 in0.0 mm
12:21 PM 54.5°F12.5°C 47.8°F8.8°C 78% 1.1 mph NW1.8 kmh NW 2.5 mph4.0 kmh 29.97 in1014.9 mb 0.00 in0.0 mm 0.00 in/hr0.0 mm/hr 0.00 in0.0 mm
12:26 PM 55.4°F13.0°C 48.3°F9.1°C 77% 2.0 mph N3.2 kmh N 3.6 mph5.8 kmh 29.96 in1014.6 mb 0.00 in0.0 mm 0.00 in/hr0.0 mm/hr 0.00 in0.0 mm
12:31 PM 55.4°F13.0°C 48.3°F9.1°C 77% 2.3 mph WNW3.7 kmh WNW 3.6 mph5.8 kmh 29.96 in1014.6 mb 0.00 in0.0 mm 0.00 in/hr0.0 mm/hr 0.00 in0.0 mm
12:36 PM 55.6°F13.1°C 48.5°F9.2°C 77% 0.9 mph NW1.4 kmh NW 3.4 mph5.5 kmh 29.96 in1014.6 mb 0.00 in0.0 mm 0.00 in/hr0.0 mm/hr 0.00 in0.0 mm
12:41 PM 56.3°F13.5°C 48.8°F9.3°C 76% 2.0 mph SSW3.2 kmh SSW 2.7 mph4.3 kmh 29.96 in1014.6 mb 0.00 in0.0 mm 0.00 in/hr0.0 mm/hr 0.00 in0.0 mm
12:46 PM 56.7°F13.7°C 48.8°F9.3°C 75% 1.7 mph W2.7 kmh W 2.7 mph4.3 kmh 29.96 in1014.6 mb 0.00 in0.0 mm 0.00 in/hr0.0 mm/hr 0.00 in0.0 mm
12:51 PM 56.9°F13.8°C 49.0°F9.4°C 75% 3.4 mph SW5.5 kmh SW 3.4 mph5.5 kmh 29.97 in1014.9 mb 0.00 in0.0 mm 0.00 in/hr0.0 mm/hr 0.00 in0.0 mm
12:56 PM 57.1°F13.9°C 48.8°F9.3°C 74% 1.1 mph 1.8 kmh 3.4 mph5.5 kmh 29.96 in1014.6 mb 0.00 in0.0 mm 0.00 in/hr0.0 mm/hr 0.00 in0.0 mm
01:01 PM 57.2°F14.0°C 48.6°F9.2°C 73% 2.5 mph NW4.0 kmh NW 3.4 mph5.5 kmh 29.96 in1014.6 mb 0.00 in0.0 mm 0.00 in/hr0.0 mm/hr 0.00 in0.0 mm
01:06 PM 57.4°F14.1°C 48.8°F9.3°C 73% 0.9 mph SW1.4 kmh SW 2.5 mph4.0 kmh 29.96 in1014.6 mb 0.00 in0.0 mm 0.00 in/hr0.0 mm/hr 0.00 in0.0 mm
01:11 PM 57.6°F14.2°C 49.0°F9.4°C 73% 0.8 mph SW1.3 kmh SW 2.7 mph4.3 kmh 29.96 in1014.6 mb 0.00 in0.0 mm 0.00 in/hr0.0 mm/hr 0.00 in0.0 mm
01:16 PM 57.6°F14.2°C 48.6°F9.2°C 72% 1.5 mph WSW2.4 kmh WSW 2.7 mph4.3 kmh 29.96 in1014.6 mb 0.00 in0.0 mm 0.00 in/hr0.0 mm/hr 0.00 in0.0 mm
01:21 PM 57.8°F14.3°C 48.4°F9.1°C 71% 2.8 mph NW4.5 kmh NW 3.6 mph5.8 kmh 29.96 in1014.6 mb 0.00 in0.0 mm 0.00 in/hr0.0 mm/hr 0.00 in0.0 mm
01:26 PM 57.8°F14.3°C 48.8°F9.3°C 72% 1.2 mph WSW1.9 kmh WSW 3.6 mph5.8 kmh 29.96 in1014.6 mb 0.00 in0.0 mm 0.00 in/hr0.0 mm/hr 0.00 in0.0 mm
01:31 PM 57.8°F14.3°C 48.4°F9.1°C 71% 2.1 mph NW3.4 kmh NW 3.6 mph5.8 kmh 29.96 in1014.6 mb 0.00 in0.0 mm 0.00 in/hr0.0 mm/hr 0.00 in0.0 mm
01:36 PM 57.8°F14.3°C 48.1°F8.9°C 70% 1.4 mph SW2.3 kmh SW 2.5 mph4.0 kmh 29.96 in1014.6 mb 0.00 in0.0 mm 0.00 in/hr0.0 mm/hr 0.00 in0.0 mm
01:41 PM 57.8°F14.3°C 48.1°F8.9°C 70% 1.3 mph WSW2.1 kmh WSW 2.0 mph3.2 kmh 29.96 in1014.6 mb 0.00 in0.0 mm 0.00 in/hr0.0 mm/hr 0.00 in0.0 mm
01:46 PM 57.6°F14.2°C 47.9°F8.8°C 70% 1.1 mph WNW1.8 kmh WNW 1.6 mph2.6 kmh 29.96 in1014.6 mb 0.00 in0.0 mm 0.00 in/hr0.0 mm/hr 0.00 in0.0 mm
01:51 PM 57.4°F14.1°C 47.7°F8.7°C 70% 1.5 mph W2.4 kmh W 1.8 mph2.9 kmh 29.96 in1014.6 mb 0.00 in0.0 mm 0.00 in/hr0.0 mm/hr 0.00 in0.0 mm
01:56 PM 57.4°F14.1°C 47.7°F8.7°C 70% 1.0 mph WNW1.6 kmh WNW 1.8 mph2.9 kmh 29.96 in1014.6 mb 0.00 in0.0 mm 0.00 in/hr0.0 mm/hr 0.00 in0.0 mm
02:01 PM 57.4°F14.1°C 47.4°F8.6°C 69% 1.6 mph NW2.6 kmh NW 1.6 mph2.6 kmh 29.96 in1014.6 mb 0.00 in0.0 mm 0.00 in/hr0.0 mm/hr 0.00 in0.0 mm
02:06 PM 57.2°F14.0°C 47.2°F8.4°C 69% 1.2 mph WSW1.9 kmh WSW 2.5 mph4.0 kmh 29.96 in1014.6 mb 0.00 in0.0 mm 0.00 in/hr0.0 mm/hr 0.00 in0.0 mm
02:11 PM 57.2°F14.0°C 47.2°F8.4°C 69% 2.3 mph WSW3.7 kmh WSW 3.6 mph5.8 kmh 29.96 in1014.6 mb 0.00 in0.0 mm 0.00 in/hr0.0 mm/hr 0.00 in0.0 mm
02:16 PM 57.2°F14.0°C 46.7°F8.2°C 68% 2.6 mph WSW4.2 kmh WSW 3.6 mph5.8 kmh 29.96 in1014.6 mb 0.00 in0.0 mm 0.00 in/hr0.0 mm/hr 0.00 in0.0 mm
02:21 PM 57.2°F14.0°C 47.2°F8.4°C 69% 1.1 mph WNW1.8 kmh WNW 3.4 mph5.5 kmh 29.96 in1014.6 mb 0.00 in0.0 mm 0.00 in/hr0.0 mm/hr 0.00 in0.0 mm
02:26 PM 57.2°F14.0°C 46.7°F8.2°C 68% 1.8 mph 2.9 kmh 3.4 mph5.5 kmh 29.96 in1014.6 mb 0.00 in0.0 mm 0.00 in/hr0.0 mm/hr 0.00 in0.0 mm
02:31 PM 57.6°F14.2°C 47.1°F8.4°C 68% 2.2 mph NNW3.5 kmh NNW 4.3 mph6.9 kmh 29.95 in1014.2 mb 0.00 in0.0 mm 0.00 in/hr0.0 mm/hr 0.00 in0.0 mm
02:36 PM 57.8°F14.3°C 46.4°F8.0°C 66% 3.1 mph NW5.0 kmh NW 4.3 mph6.9 kmh 29.95 in1014.2 mb 0.00 in0.0 mm 0.00 in/hr0.0 mm/hr 0.00 in0.0 mm
02:41 PM 57.6°F14.2°C 46.7°F8.2°C 67% 3.3 mph NNW5.3 kmh NNW 4.3 mph6.9 kmh 29.96 in1014.6 mb 0.00 in0.0 mm 0.00 in/hr0.0 mm/hr 0.00 in0.0 mm
02:46 PM 57.6°F14.2°C 46.7°F8.2°C 67% 1.8 mph WNW2.9 kmh WNW 4.3 mph6.9 kmh 29.95 in1014.2 mb 0.00 in0.0 mm 0.00 in/hr0.0 mm/hr 0.00 in0.0 mm
02:51 PM 57.4°F14.1°C 46.5°F8.1°C 67% 3.9 mph NNW6.3 kmh NNW 4.3 mph6.9 kmh 29.95 in1014.2 mb 0.00 in0.0 mm 0.00 in/hr0.0 mm/hr 0.00 in0.0 mm
02:56 PM 57.2°F14.0°C 46.4°F8.0°C 67% 2.5 mph NW4.0 kmh NW 4.3 mph6.9 kmh 29.96 in1014.6 mb 0.00 in0.0 mm 0.00 in/hr0.0 mm/hr 0.00 in0.0 mm
03:00 PM 57.1°F13.9°C 46.5°F8.1°C 68% 2.7 mph W4.3 kmh W 4.0 mph6.4 kmh 29.95 in1014.2 mb 0.00 in0.0 mm 0.00 in/hr0.0 mm/hr 0.00 in0.0 mm
03:05 PM 56.9°F13.8°C 46.5°F8.1°C 68% 1.9 mph NW3.1 kmh NW 3.8 mph6.1 kmh 29.96 in1014.6 mb 0.00 in0.0 mm 0.00 in/hr0.0 mm/hr 0.00 in0.0 mm
03:10 PM 56.9°F13.8°C 46.5°F8.1°C 68% 1.8 mph NW2.9 kmh NW 3.8 mph6.1 kmh 29.96 in1014.6 mb 0.00 in0.0 mm 0.00 in/hr0.0 mm/hr 0.00 in0.0 mm
03:15 PM 56.9°F13.8°C 46.0°F7.8°C 67% 3.1 mph N5.0 kmh N 3.8 mph6.1 kmh 29.96 in1014.6 mb 0.00 in0.0 mm 0.00 in/hr0.0 mm/hr 0.00 in0.0 mm
03:20 PM 56.7°F13.7°C 45.8°F7.7°C 67% 4.3 mph NNW6.9 kmh NNW 4.3 mph6.9 kmh 29.96 in1014.6 mb 0.00 in0.0 mm 0.00 in/hr0.0 mm/hr 0.00 in0.0 mm
03:25 PM 56.7°F13.7°C 46.3°F7.9°C 68% 1.3 mph NNW2.1 kmh NNW 4.3 mph6.9 kmh 29.96 in1014.6 mb 0.00 in0.0 mm 0.00 in/hr0.0 mm/hr 0.00 in0.0 mm
03:30 PM 57.2°F14.0°C 46.7°F8.2°C 68% 1.5 mph NW2.4 kmh NW 4.3 mph6.9 kmh 29.96 in1014.6 mb 0.00 in0.0 mm 0.00 in/hr0.0 mm/hr 0.00 in0.0 mm
03:35 PM 58.0°F14.4°C 46.6°F8.1°C 66% 2.5 mph NW4.0 kmh NW 3.6 mph5.8 kmh 29.96 in1014.6 mb 0.00 in0.0 mm 0.00 in/hr0.0 mm/hr 0.00 in0.0 mm
03:40 PM 57.8°F14.3°C 45.6°F7.6°C 64% 3.3 mph NW5.3 kmh NW 4.0 mph6.4 kmh 29.97 in1014.9 mb 0.00 in0.0 mm 0.00 in/hr0.0 mm/hr 0.00 in0.0 mm
03:45 PM 57.6°F14.2°C 45.9°F7.7°C 65% 2.6 mph WNW4.2 kmh WNW 4.0 mph6.4 kmh 29.97 in1014.9 mb 0.00 in0.0 mm 0.00 in/hr0.0 mm/hr 0.00 in0.0 mm
03:50 PM 57.6°F14.2°C 45.5°F7.5°C 64% 2.9 mph NW4.7 kmh NW 3.8 mph6.1 kmh 29.97 in1014.9 mb 0.00 in0.0 mm 0.00 in/hr0.0 mm/hr 0.00 in0.0 mm
03:55 PM 57.6°F14.2°C 45.5°F7.5°C 64% 2.3 mph NNW3.7 kmh NNW 3.8 mph6.1 kmh 29.97 in1014.9 mb 0.00 in0.0 mm 0.00 in/hr0.0 mm/hr 0.00 in0.0 mm
04:00 PM 58.3°F14.6°C 46.2°F7.9°C 64% 2.0 mph W3.2 kmh W 2.5 mph4.0 kmh 29.97 in1014.9 mb 0.00 in0.0 mm 0.00 in/hr0.0 mm/hr 0.00 in0.0 mm
04:05 PM 58.7°F14.8°C 46.5°F8.1°C 64% 2.8 mph WNW4.5 kmh WNW 3.6 mph5.8 kmh 29.97 in1014.9 mb 0.00 in0.0 mm 0.00 in/hr0.0 mm/hr 0.00 in0.0 mm
04:06 PM 58.7°F14.8°C 46.1°F7.8°C 63% 3.0 mph WNW4.8 kmh WNW 3.6 mph5.8 kmh 29.97 in1014.9 mb 0.00 in0.0 mm 0.00 in/hr0.0 mm/hr 0.00 in0.0 mm
04:10 PM 58.9°F14.9°C 46.3°F7.9°C 63% 1.8 mph W2.9 kmh W 3.6 mph5.8 kmh 29.97 in1014.9 mb 0.00 in0.0 mm 0.00 in/hr0.0 mm/hr 0.00 in0.0 mm
04:15 PM 59.0°F15.0°C 46.0°F7.8°C 62% 3.5 mph N5.6 kmh N 4.3 mph6.9 kmh 29.98 in1015.2 mb 0.00 in0.0 mm 0.00 in/hr0.0 mm/hr 0.00 in0.0 mm
04:20 PM 59.0°F15.0°C 46.0°F7.8°C 62% 2.3 mph W3.7 kmh W 4.3 mph6.9 kmh 29.99 in1015.6 mb 0.00 in0.0 mm 0.00 in/hr0.0 mm/hr 0.00 in0.0 mm
04:25 PM 58.9°F14.9°C 44.6°F7.0°C 59% 2.7 mph NW4.3 kmh NW 4.0 mph6.4 kmh 29.99 in1015.6 mb 0.00 in0.0 mm 0.00 in/hr0.0 mm/hr 0.00 in0.0 mm
04:30 PM 58.3°F14.6°C 44.6°F7.0°C 60% 3.4 mph 5.5 kmh 5.4 mph8.7 kmh 29.99 in1015.6 mb 0.00 in0.0 mm 0.00 in/hr0.0 mm/hr 0.00 in0.0 mm
04:35 PM 57.8°F14.3°C 44.0°F6.7°C 60% 2.3 mph NW3.7 kmh NW 5.4 mph8.7 kmh 29.99 in1015.6 mb 0.00 in0.0 mm 0.00 in/hr0.0 mm/hr 0.00 in0.0 mm
04:40 PM 57.6°F14.2°C 43.9°F6.6°C 60% 4.7 mph NW7.6 kmh NW 4.7 mph7.6 kmh 29.99 in1015.6 mb 0.00 in0.0 mm 0.00 in/hr0.0 mm/hr 0.00 in0.0 mm
04:45 PM 57.1°F13.9°C 44.2°F6.8°C 62% 2.1 mph NW3.4 kmh NW 4.7 mph7.6 kmh 29.99 in1015.6 mb 0.00 in0.0 mm 0.00 in/hr0.0 mm/hr 0.00 in0.0 mm
04:50 PM 56.7°F13.7°C 43.8°F6.6°C 62% 4.2 mph NW6.8 kmh NW 6.3 mph10.1 kmh 29.99 in1015.6 mb 0.00 in0.0 mm 0.00 in/hr0.0 mm/hr 0.00 in0.0 mm
04:55 PM 56.7°F13.7°C 43.8°F6.6°C 62% 3.8 mph NW6.1 kmh NW 6.3 mph10.1 kmh 30.00 in1015.9 mb 0.00 in0.0 mm 0.00 in/hr0.0 mm/hr 0.00 in0.0 mm
05:01 PM 56.5°F13.6°C 44.0°F6.7°C 63% 0.7 mph W1.1 kmh W 6.3 mph10.1 kmh 30.00 in1015.9 mb 0.00 in0.0 mm 0.00 in/hr0.0 mm/hr 0.00 in0.0 mm
05:06 PM 56.3°F13.5°C 43.9°F6.6°C 63% 4.0 mph WNW6.4 kmh WNW 4.0 mph6.4 kmh 30.00 in1015.9 mb 0.00 in0.0 mm 0.00 in/hr0.0 mm/hr 0.00 in0.0 mm
05:11 PM 56.0°F13.3°C 43.6°F6.4°C 63% 1.8 mph NW2.9 kmh NW 4.0 mph6.4 kmh 30.01 in1016.3 mb 0.00 in0.0 mm 0.00 in/hr0.0 mm/hr 0.00 in0.0 mm
05:16 PM 55.8°F13.2°C 43.4°F6.3°C 63% 1.6 mph WNW2.6 kmh WNW 4.0 mph6.4 kmh 30.01 in1016.3 mb 0.00 in0.0 mm 0.00 in/hr0.0 mm/hr 0.00 in0.0 mm
05:21 PM 55.4°F13.0°C 43.0°F6.1°C 63% 1.8 mph WNW2.9 kmh WNW 3.1 mph5.0 kmh 30.02 in1016.6 mb 0.00 in0.0 mm 0.00 in/hr0.0 mm/hr 0.00 in0.0 mm
05:26 PM 55.3°F12.9°C 43.3°F6.3°C 64% 1.5 mph W2.4 kmh W 3.1 mph5.0 kmh 30.02 in1016.6 mb 0.00 in0.0 mm 0.00 in/hr0.0 mm/hr 0.00 in0.0 mm
05:31 PM 55.1°F12.8°C 43.1°F6.2°C 64% 2.8 mph WNW4.5 kmh WNW 3.8 mph6.1 kmh 30.02 in1016.6 mb 0.00 in0.0 mm 0.00 in/hr0.0 mm/hr 0.00 in0.0 mm
05:36 PM 54.9°F12.7°C 42.9°F6.1°C 64% 1.6 mph NW2.6 kmh NW 3.8 mph6.1 kmh 30.02 in1016.6 mb 0.00 in0.0 mm 0.00 in/hr0.0 mm/hr 0.00 in0.0 mm
05:41 PM 54.9°F12.7°C 43.3°F6.3°C 65% 1.9 mph NW3.1 kmh NW 3.8 mph6.1 kmh 30.02 in1016.6 mb 0.00 in0.0 mm 0.00 in/hr0.0 mm/hr 0.00 in0.0 mm
05:46 PM 54.7°F12.6°C 43.1°F6.2°C 65% 2.1 mph NW3.4 kmh NW 2.5 mph4.0 kmh 30.02 in1016.6 mb 0.00 in0.0 mm 0.00 in/hr0.0 mm/hr 0.00 in0.0 mm
05:51 PM 54.5°F12.5°C 43.0°F6.1°C 65% 1.5 mph WNW2.4 kmh WNW 2.5 mph4.0 kmh 30.03 in1016.9 mb 0.00 in0.0 mm 0.00 in/hr0.0 mm/hr 0.00 in0.0 mm
05:56 PM 54.4°F12.4°C 42.9°F6.1°C 65% 2.2 mph NW3.5 kmh NW 4.0 mph6.4 kmh 30.04 in1017.3 mb 0.00 in0.0 mm 0.00 in/hr0.0 mm/hr 0.00 in0.0 mm
06:01 PM 54.4°F12.4°C 42.9°F6.1°C 65% 2.7 mph WNW4.3 kmh WNW 4.0 mph6.4 kmh 30.04 in1017.3 mb 0.00 in0.0 mm 0.00 in/hr0.0 mm/hr 0.00 in0.0 mm
06:06 PM 54.2°F12.3°C 42.7°F5.9°C 65% 1.5 mph NW2.4 kmh NW 3.8 mph6.1 kmh 30.04 in1017.3 mb 0.00 in0.0 mm 0.00 in/hr0.0 mm/hr 0.00 in0.0 mm
06:11 PM 54.0°F12.2°C 42.5°F5.8°C 65% 2.7 mph NW4.3 kmh NW 3.1 mph5.0 kmh 30.04 in1017.3 mb 0.00 in0.0 mm 0.00 in/hr0.0 mm/hr 0.00 in0.0 mm
06:16 PM 54.0°F12.2°C 42.5°F5.8°C 65% 1.6 mph NW2.6 kmh NW 3.1 mph5.0 kmh 30.05 in1017.6 mb 0.00 in0.0 mm 0.00 in/hr0.0 mm/hr 0.00 in0.0 mm
06:21 PM 53.6°F12.0°C 42.1°F5.6°C 65% 1.7 mph WNW2.7 kmh WNW 2.9 mph4.7 kmh 30.05 in1017.6 mb 0.00 in0.0 mm 0.00 in/hr0.0 mm/hr 0.00 in0.0 mm
06:26 PM 53.5°F11.9°C 42.4°F5.8°C 66% 1.8 mph WNW2.9 kmh WNW 2.5 mph4.0 kmh 30.05 in1017.6 mb 0.00 in0.0 mm 0.00 in/hr0.0 mm/hr 0.00 in0.0 mm
06:31 PM 53.3°F11.8°C 42.2°F5.7°C 66% 1.8 mph NW2.9 kmh NW 2.5 mph4.0 kmh 30.06 in1017.9 mb 0.00 in0.0 mm 0.00 in/hr0.0 mm/hr 0.00 in0.0 mm
06:36 PM 53.1°F11.7°C 42.0°F5.6°C 66% 2.0 mph NW3.2 kmh NW 3.4 mph5.5 kmh 30.06 in1017.9 mb 0.00 in0.0 mm 0.00 in/hr0.0 mm/hr 0.00 in0.0 mm
06:41 PM 52.9°F11.6°C 41.9°F5.5°C 66% 1.2 mph NW1.9 kmh NW 3.4 mph5.5 kmh 30.06 in1017.9 mb 0.00 in0.0 mm 0.00 in/hr0.0 mm/hr 0.00 in0.0 mm
06:46 PM 52.7°F11.5°C 41.7°F5.4°C 66% 1.3 mph NW2.1 kmh NW 1.6 mph2.6 kmh 30.06 in1017.9 mb 0.00 in0.0 mm 0.00 in/hr0.0 mm/hr 0.00 in0.0 mm
06:51 PM 52.4°F11.3°C 41.8°F5.4°C 67% 0.6 mph WNW1.0 kmh WNW 1.6 mph2.6 kmh 30.07 in1018.3 mb 0.00 in0.0 mm 0.00 in/hr0.0 mm/hr 0.00 in0.0 mm
06:56 PM 52.2°F11.2°C 41.6°F5.3°C 67% 1.0 mph WNW1.6 kmh WNW 1.3 mph2.1 kmh 30.07 in1018.3 mb 0.00 in0.0 mm 0.00 in/hr0.0 mm/hr 0.00 in0.0 mm
07:01 PM 52.0°F11.1°C 41.4°F5.2°C 67% 1.8 mph WNW2.9 kmh WNW 1.8 mph2.9 kmh 30.07 in1018.3 mb 0.00 in0.0 mm 0.00 in/hr0.0 mm/hr 0.00 in0.0 mm
07:06 PM 51.8°F11.0°C 41.7°F5.4°C 68% 2.1 mph WNW3.4 kmh WNW 2.5 mph4.0 kmh 30.08 in1018.6 mb 0.00 in0.0 mm 0.00 in/hr0.0 mm/hr 0.00 in0.0 mm
07:11 PM 51.7°F10.9°C 41.5°F5.3°C 68% 1.5 mph W2.4 kmh W 2.5 mph4.0 kmh 30.08 in1018.6 mb 0.00 in0.0 mm 0.00 in/hr0.0 mm/hr 0.00 in0.0 mm
07:16 PM 51.7°F10.9°C 41.5°F5.3°C 68% 1.8 mph WNW2.9 kmh WNW 2.2 mph3.5 kmh 30.09 in1019.0 mb 0.00 in0.0 mm 0.00 in/hr0.0 mm/hr 0.00 in0.0 mm
07:21 PM 51.7°F10.9°C 41.5°F5.3°C 68% 2.7 mph NW4.3 kmh NW 5.6 mph9.0 kmh 30.09 in1019.0 mb 0.00 in0.0 mm 0.00 in/hr0.0 mm/hr 0.00 in0.0 mm
07:26 PM 51.8°F11.0°C 41.7°F5.4°C 68% 1.7 mph NW2.7 kmh NW 5.6 mph9.0 kmh 30.09 in1019.0 mb 0.00 in0.0 mm 0.00 in/hr0.0 mm/hr 0.00 in0.0 mm
07:31 PM 51.8°F11.0°C 41.7°F5.4°C 68% 4.4 mph NNW7.1 kmh NNW 6.7 mph10.8 kmh 30.10 in1019.3 mb 0.00 in0.0 mm 0.00 in/hr0.0 mm/hr 0.00 in0.0 mm
07:36 PM 51.8°F11.0°C 41.7°F5.4°C 68% 4.0 mph NW6.4 kmh NW 6.7 mph10.8 kmh 30.10 in1019.3 mb 0.00 in0.0 mm 0.00 in/hr0.0 mm/hr 0.00 in0.0 mm
07:41 PM 51.8°F11.0°C 41.2°F5.1°C 67% 2.5 mph NW4.0 kmh NW 6.7 mph10.8 kmh 30.10 in1019.3 mb 0.00 in0.0 mm 0.00 in/hr0.0 mm/hr 0.00 in0.0 mm
07:45 PM 51.8°F11.0°C 40.9°F4.9°C 66% 6.0 mph NW9.7 kmh NW 6.5 mph10.5 kmh 30.10 in1019.3 mb 0.00 in0.0 mm 0.00 in/hr0.0 mm/hr 0.00 in0.0 mm
07:50 PM 51.8°F11.0°C 40.9°F4.9°C 66% 4.9 mph NW7.9 kmh NW 7.4 mph11.9 kmh 30.10 in1019.3 mb 0.00 in0.0 mm 0.00 in/hr0.0 mm/hr 0.00 in0.0 mm
07:55 PM 51.7°F10.9°C 40.7°F4.8°C 66% 2.7 mph W4.3 kmh W 7.4 mph11.9 kmh 30.11 in1019.6 mb 0.00 in0.0 mm 0.00 in/hr0.0 mm/hr 0.00 in0.0 mm